sensor_id;sensor_type;location;lat;lon;timestamp;temperature;humidity
53645;DHT22;39547;45.554;12.068;2023-12-07T00:00:04;3.70;92.50
53645;DHT22;39547;45.554;12.068;2023-12-07T00:06:06;3.60;92.10
53645;DHT22;39547;45.554;12.068;2023-12-07T00:12:07;3.50;92.20
53645;DHT22;39547;45.554;12.068;2023-12-07T00:18:09;3.50;92.30
53645;DHT22;39547;45.554;12.068;2023-12-07T00:24:10;3.40;92.00
53645;DHT22;39547;45.554;12.068;2023-12-07T00:30:12;3.30;92.00
53645;DHT22;39547;45.554;12.068;2023-12-07T00:36:14;3.20;91.90
53645;DHT22;39547;45.554;12.068;2023-12-07T00:42:15;3.10;91.90
53645;DHT22;39547;45.554;12.068;2023-12-07T00:48:17;3.10;92.10
53645;DHT22;39547;45.554;12.068;2023-12-07T00:54:19;3.00;91.80
53645;DHT22;39547;45.554;12.068;2023-12-07T01:00:20;2.90;91.40
53645;DHT22;39547;45.554;12.068;2023-12-07T01:06:22;2.80;91.90
53645;DHT22;39547;45.554;12.068;2023-12-07T01:12:23;2.80;92.20
53645;DHT22;39547;45.554;12.068;2023-12-07T01:18:25;2.90;92.30
53645;DHT22;39547;45.554;12.068;2023-12-07T01:24:26;2.90;92.40
53645;DHT22;39547;45.554;12.068;2023-12-07T01:30:28;2.90;92.40
53645;DHT22;39547;45.554;12.068;2023-12-07T01:36:30;3.00;92.40
53645;DHT22;39547;45.554;12.068;2023-12-07T01:42:31;3.00;92.30
53645;DHT22;39547;45.554;12.068;2023-12-07T01:48:33;3.00;92.30
53645;DHT22;39547;45.554;12.068;2023-12-07T01:54:34;2.90;92.30
53645;DHT22;39547;45.554;12.068;2023-12-07T02:00:36;2.90;92.30
53645;DHT22;39547;45.554;12.068;2023-12-07T02:06:38;2.90;92.00
53645;DHT22;39547;45.554;12.068;2023-12-07T02:12:39;2.80;92.20
53645;DHT22;39547;45.554;12.068;2023-12-07T02:18:47;2.80;92.20
53645;DHT22;39547;45.554;12.068;2023-12-07T02:31:05;2.70;92.10
53645;DHT22;39547;45.554;12.068;2023-12-07T02:37:06;2.70;92.10
53645;DHT22;39547;45.554;12.068;2023-12-07T02:43:08;2.70;92.20
53645;DHT22;39547;45.554;12.068;2023-12-07T02:49:10;2.70;92.30
53645;DHT22;39547;45.554;12.068;2023-12-07T02:55:11;2.70;92.30
53645;DHT22;39547;45.554;12.068;2023-12-07T03:01:13;2.70;92.20
53645;DHT22;39547;45.554;12.068;2023-12-07T03:07:14;2.70;92.30
53645;DHT22;39547;45.554;12.068;2023-12-07T03:13:16;2.60;92.10
53645;DHT22;39547;45.554;12.068;2023-12-07T03:19:18;2.60;92.30
53645;DHT22;39547;45.554;12.068;2023-12-07T03:25:19;2.60;92.30
53645;DHT22;39547;45.554;12.068;2023-12-07T03:31:21;2.60;92.20
53645;DHT22;39547;45.554;12.068;2023-12-07T03:37:22;2.60;92.20
53645;DHT22;39547;45.554;12.068;2023-12-07T03:43:24;2.50;92.10
53645;DHT22;39547;45.554;12.068;2023-12-07T03:49:25;2.50;92.10
53645;DHT22;39547;45.554;12.068;2023-12-07T03:55:27;2.40;92.00
53645;DHT22;39547;45.554;12.068;2023-12-07T04:01:29;2.30;91.60
53645;DHT22;39547;45.554;12.068;2023-12-07T04:07:30;2.30;91.90
53645;DHT22;39547;45.554;12.068;2023-12-07T04:13:32;2.30;92.00
53645;DHT22;39547;45.554;12.068;2023-12-07T04:19:33;2.30;92.10
53645;DHT22;39547;45.554;12.068;2023-12-07T04:25:34;2.20;91.80
53645;DHT22;39547;45.554;12.068;2023-12-07T04:31:36;2.20;92.00
53645;DHT22;39547;45.554;12.068;2023-12-07T04:37:37;2.20;92.10
53645;DHT22;39547;45.554;12.068;2023-12-07T04:43:39;2.30;92.10
53645;DHT22;39547;45.554;12.068;2023-12-07T04:49:41;2.20;91.90
53645;DHT22;39547;45.554;12.068;2023-12-07T04:55:42;2.20;92.20
53645;DHT22;39547;45.554;12.068;2023-12-07T05:01:48;2.20;92.30
53645;DHT22;39547;45.554;12.068;2023-12-07T05:07:50;2.30;92.40
53645;DHT22;39547;45.554;12.068;2023-12-07T05:13:51;2.30;92.40
53645;DHT22;39547;45.554;12.068;2023-12-07T05:19:53;2.30;92.40
53645;DHT22;39547;45.554;12.068;2023-12-07T05:25:54;2.30;92.20
53645;DHT22;39547;45.554;12.068;2023-12-07T05:31:56;2.20;92.10
53645;DHT22;39547;45.554;12.068;2023-12-07T05:37:57;2.20;92.30
53645;DHT22;39547;45.554;12.068;2023-12-07T05:43:59;2.20;92.30
53645;DHT22;39547;45.554;12.068;2023-12-07T05:50:01;2.20;92.30
53645;DHT22;39547;45.554;12.068;2023-12-07T05:56:04;2.10;91.90
53645;DHT22;39547;45.554;12.068;2023-12-07T06:02:06;2.10;92.30
53645;DHT22;39547;45.554;12.068;2023-12-07T06:08:07;2.00;92.00
53645;DHT22;39547;45.554;12.068;2023-12-07T06:14:09;1.90;92.20
53645;DHT22;39547;45.554;12.068;2023-12-07T06:20:11;2.00;92.40
53645;DHT22;39547;45.554;12.068;2023-12-07T06:26:13;1.90;92.30
53645;DHT22;39547;45.554;12.068;2023-12-07T06:32:15;1.90;92.00
53645;DHT22;39547;45.554;12.068;2023-12-07T06:38:17;1.80;91.90
53645;DHT22;39547;45.554;12.068;2023-12-07T06:44:20;1.70;92.20
53645;DHT22;39547;45.554;12.068;2023-12-07T06:50:21;1.80;92.40
53645;DHT22;39547;45.554;12.068;2023-12-07T06:56:23;1.90;92.50
53645;DHT22;39547;45.554;12.068;2023-12-07T07:02:24;1.90;92.50
53645;DHT22;39547;45.554;12.068;2023-12-07T07:08:26;2.00;92.60
53645;DHT22;39547;45.554;12.068;2023-12-07T07:14:28;2.10;92.80
53645;DHT22;39547;45.554;12.068;2023-12-07T07:20:29;2.20;93.00
53645;DHT22;39547;45.554;12.068;2023-12-07T07:26:31;2.20;92.80
53645;DHT22;39547;45.554;12.068;2023-12-07T07:32:32;2.20;92.80
53645;DHT22;39547;45.554;12.068;2023-12-07T07:38:34;2.30;93.00
53645;DHT22;39547;45.554;12.068;2023-12-07T07:44:35;2.30;92.90
53645;DHT22;39547;45.554;12.068;2023-12-07T07:50:37;2.40;93.20
53645;DHT22;39547;45.554;12.068;2023-12-07T07:56:38;2.50;93.40
53645;DHT22;39547;45.554;12.068;2023-12-07T08:02:40;2.60;93.60
53645;DHT22;39547;45.554;12.068;2023-12-07T08:08:41;2.70;93.80
53645;DHT22;39547;45.554;12.068;2023-12-07T08:14:43;2.90;93.90
53645;DHT22;39547;45.554;12.068;2023-12-07T08:20:45;3.00;94.10
53645;DHT22;39547;45.554;12.068;2023-12-07T08:26:48;3.20;94.30
53645;DHT22;39547;45.554;12.068;2023-12-07T08:32:49;3.30;94.30
53645;DHT22;39547;45.554;12.068;2023-12-07T08:38:51;3.40;94.50
53645;DHT22;39547;45.554;12.068;2023-12-07T08:44:53;3.60;94.60
53645;DHT22;39547;45.554;12.068;2023-12-07T08:50:55;3.80;94.60
53645;DHT22;39547;45.554;12.068;2023-12-07T08:56:57;4.00;94.70
53645;DHT22;39547;45.554;12.068;2023-12-07T09:02:58;4.20;94.90
53645;DHT22;39547;45.554;12.068;2023-12-07T09:09:00;4.50;95.10
53645;DHT22;39547;45.554;12.068;2023-12-07T09:15:05;4.70;95.00
53645;DHT22;39547;45.554;12.068;2023-12-07T09:21:08;4.90;95.10
53645;DHT22;39547;45.554;12.068;2023-12-07T09:27:10;5.10;94.90
53645;DHT22;39547;45.554;12.068;2023-12-07T09:33:12;5.20;94.80
53645;DHT22;39547;45.554;12.068;2023-12-07T09:39:13;5.40;95.10
53645;DHT22;39547;45.554;12.068;2023-12-07T09:45:16;5.70;95.30
53645;DHT22;39547;45.554;12.068;2023-12-07T09:51:19;5.80;95.40
53645;DHT22;39547;45.554;12.068;2023-12-07T09:57:21;6.00;95.60
53645;DHT22;39547;45.554;12.068;2023-12-07T10:03:24;6.20;95.70
53645;DHT22;39547;45.554;12.068;2023-12-07T10:09:27;6.40;95.80
53645;DHT22;39547;45.554;12.068;2023-12-07T10:15:29;6.50;95.90
53645;DHT22;39547;45.554;12.068;2023-12-07T10:21:32;6.70;96.00
53645;DHT22;39547;45.554;12.068;2023-12-07T10:27:35;6.80;96.10
53645;DHT22;39547;45.554;12.068;2023-12-07T10:33:37;7.00;96.10
53645;DHT22;39547;45.554;12.068;2023-12-07T10:39:40;7.20;96.20
53645;DHT22;39547;45.554;12.068;2023-12-07T10:45:43;7.30;96.20
53645;DHT22;39547;45.554;12.068;2023-12-07T10:51:59;7.40;96.20
53645;DHT22;39547;45.554;12.068;2023-12-07T10:58:06;7.50;94.80
53645;DHT22;39547;45.554;12.068;2023-12-07T11:04:14;7.70;95.90
53645;DHT22;39547;45.554;12.068;2023-12-07T11:10:36;7.70;95.70
53645;DHT22;39547;45.554;12.068;2023-12-07T11:16:42;7.90;95.90
53645;DHT22;39547;45.554;12.068;2023-12-07T11:22:44;8.00;96.00
53645;DHT22;39547;45.554;12.068;2023-12-07T11:28:46;8.10;93.90
53645;DHT22;39547;45.554;12.068;2023-12-07T11:34:48;8.20;95.40
53645;DHT22;39547;45.554;12.068;2023-12-07T11:40:51;8.30;95.70
53645;DHT22;39547;45.554;12.068;2023-12-07T11:46:55;8.50;95.70
53645;DHT22;39547;45.554;12.068;2023-12-07T11:52:58;8.70;95.70
53645;DHT22;39547;45.554;12.068;2023-12-07T11:59:03;8.70;95.70
53645;DHT22;39547;45.554;12.068;2023-12-07T12:05:09;8.90;95.60
53645;DHT22;39547;45.554;12.068;2023-12-07T12:11:12;8.90;95.40
53645;DHT22;39547;45.554;12.068;2023-12-07T12:17:17;9.00;95.40
53645;DHT22;39547;45.554;12.068;2023-12-07T12:23:20;9.10;95.30
53645;DHT22;39547;45.554;12.068;2023-12-07T12:29:23;9.20;95.10
53645;DHT22;39547;45.554;12.068;2023-12-07T12:35:26;9.20;95.10
53645;DHT22;39547;45.554;12.068;2023-12-07T12:41:27;9.30;94.90
53645;DHT22;39547;45.554;12.068;2023-12-07T12:47:33;9.20;92.30
53645;DHT22;39547;45.554;12.068;2023-12-07T12:53:45;9.30;94.10
53645;DHT22;39547;45.554;12.068;2023-12-07T12:59:52;9.40;93.70
53645;DHT22;39547;45.554;12.068;2023-12-07T13:05:55;9.50;93.50
53645;DHT22;39547;45.554;12.068;2023-12-07T13:12:02;9.40;93.80
53645;DHT22;39547;45.554;12.068;2023-12-07T13:18:06;9.40;93.70
53645;DHT22;39547;45.554;12.068;2023-12-07T13:24:13;9.50;93.80
53645;DHT22;39547;45.554;12.068;2023-12-07T13:30:19;9.30;93.90
53645;DHT22;39547;45.554;12.068;2023-12-07T13:36:24;9.20;94.10
53645;DHT22;39547;45.554;12.068;2023-12-07T13:42:31;9.20;94.30
53645;DHT22;39547;45.554;12.068;2023-12-07T13:48:34;9.00;94.40
53645;DHT22;39547;45.554;12.068;2023-12-07T13:54:38;8.90;94.50
53645;DHT22;39547;45.554;12.068;2023-12-07T14:00:40;8.80;94.70
53645;DHT22;39547;45.554;12.068;2023-12-07T14:06:47;8.80;94.90
53645;DHT22;39547;45.554;12.068;2023-12-07T14:12:50;8.80;94.90
53645;DHT22;39547;45.554;12.068;2023-12-07T14:18:53;8.70;95.00
53645;DHT22;39547;45.554;12.068;2023-12-07T14:24:56;8.70;95.00
53645;DHT22;39547;45.554;12.068;2023-12-07T14:31:00;8.60;95.10
53645;DHT22;39547;45.554;12.068;2023-12-07T14:37:06;8.50;95.20
53645;DHT22;39547;45.554;12.068;2023-12-07T14:43:09;8.40;95.30
53645;DHT22;39547;45.554;12.068;2023-12-07T14:49:13;8.30;95.30
53645;DHT22;39547;45.554;12.068;2023-12-07T14:55:16;8.20;95.40
53645;DHT22;39547;45.554;12.068;2023-12-07T15:01:20;8.10;95.30
53645;DHT22;39547;45.554;12.068;2023-12-07T15:07:23;8.00;95.40
53645;DHT22;39547;45.554;12.068;2023-12-07T15:13:26;7.90;95.40
53645;DHT22;39547;45.554;12.068;2023-12-07T15:19:32;7.80;95.50
53645;DHT22;39547;45.554;12.068;2023-12-07T15:25:35;7.70;95.50
53645;DHT22;39547;45.554;12.068;2023-12-07T15:31:38;7.50;95.30
53645;DHT22;39547;45.554;12.068;2023-12-07T15:37:45;7.50;95.20
53645;DHT22;39547;45.554;12.068;2023-12-07T15:43:50;7.30;95.10
53645;DHT22;39547;45.554;12.068;2023-12-07T15:49:53;7.20;95.10
53645;DHT22;39547;45.554;12.068;2023-12-07T15:55:59;7.10;95.00
53645;DHT22;39547;45.554;12.068;2023-12-07T16:02:05;6.90;94.90
53645;DHT22;39547;45.554;12.068;2023-12-07T16:08:09;6.80;94.90
53645;DHT22;39547;45.554;12.068;2023-12-07T16:14:13;6.70;94.90
53645;DHT22;39547;45.554;12.068;2023-12-07T16:20:16;6.70;94.80
53645;DHT22;39547;45.554;12.068;2023-12-07T16:26:19;6.60;94.80
53645;DHT22;39547;45.554;12.068;2023-12-07T16:32:22;6.50;94.80
53645;DHT22;39547;45.554;12.068;2023-12-07T16:38:26;6.40;94.90
53645;DHT22;39547;45.554;12.068;2023-12-07T16:44:29;6.40;94.90
53645;DHT22;39547;45.554;12.068;2023-12-07T16:50:33;6.20;94.80
53645;DHT22;39547;45.554;12.068;2023-12-07T16:56:36;6.20;94.80
53645;DHT22;39547;45.554;12.068;2023-12-07T17:02:41;6.20;94.70
53645;DHT22;39547;45.554;12.068;2023-12-07T17:08:43;6.10;94.70
53645;DHT22;39547;45.554;12.068;2023-12-07T17:14:45;6.00;94.70
53645;DHT22;39547;45.554;12.068;2023-12-07T17:20:50;6.00;94.70
53645;DHT22;39547;45.554;12.068;2023-12-07T17:26:52;5.90;94.60
53645;DHT22;39547;45.554;12.068;2023-12-07T17:32:54;5.80;94.60
53645;DHT22;39547;45.554;12.068;2023-12-07T17:38:55;5.70;94.50
53645;DHT22;39547;45.554;12.068;2023-12-07T17:44:59;5.70;94.50
53645;DHT22;39547;45.554;12.068;2023-12-07T17:51:03;5.70;94.50
53645;DHT22;39547;45.554;12.068;2023-12-07T17:57:07;5.60;94.40
53645;DHT22;39547;45.554;12.068;2023-12-07T18:03:09;5.50;94.20
53645;DHT22;39547;45.554;12.068;2023-12-07T18:09:13;5.50;94.30
53645;DHT22;39547;45.554;12.068;2023-12-07T18:15:17;5.40;94.30
53645;DHT22;39547;45.554;12.068;2023-12-07T18:21:21;5.40;94.30
53645;DHT22;39547;45.554;12.068;2023-12-07T18:27:23;5.30;94.20
53645;DHT22;39547;45.554;12.068;2023-12-07T18:33:25;5.30;94.20
53645;DHT22;39547;45.554;12.068;2023-12-07T18:39:30;5.20;94.20
53645;DHT22;39547;45.554;12.068;2023-12-07T18:45:32;5.20;94.20
53645;DHT22;39547;45.554;12.068;2023-12-07T18:51:36;5.20;94.20
53645;DHT22;39547;45.554;12.068;2023-12-07T18:57:40;5.20;94.10
53645;DHT22;39547;45.554;12.068;2023-12-07T19:03:42;5.20;94.10
53645;DHT22;39547;45.554;12.068;2023-12-07T19:09:51;5.20;94.00
53645;DHT22;39547;45.554;12.068;2023-12-07T19:15:55;5.00;93.90
53645;DHT22;39547;45.554;12.068;2023-12-07T19:21:57;5.00;94.10
53645;DHT22;39547;45.554;12.068;2023-12-07T19:28:01;5.00;94.00
53645;DHT22;39547;45.554;12.068;2023-12-07T19:34:04;5.00;93.90
53645;DHT22;39547;45.554;12.068;2023-12-07T19:40:07;4.90;93.90
53645;DHT22;39547;45.554;12.068;2023-12-07T19:46:17;4.90;93.90
53645;DHT22;39547;45.554;12.068;2023-12-07T19:52:20;4.90;93.80
53645;DHT22;39547;45.554;12.068;2023-12-07T19:58:25;4.80;93.90
53645;DHT22;39547;45.554;12.068;2023-12-07T20:04:29;4.80;93.90
53645;DHT22;39547;45.554;12.068;2023-12-07T20:10:31;4.80;93.70
53645;DHT22;39547;45.554;12.068;2023-12-07T20:16:36;4.70;93.60
53645;DHT22;39547;45.554;12.068;2023-12-07T20:22:38;4.70;93.60
53645;DHT22;39547;45.554;12.068;2023-12-07T20:28:44;4.70;93.40
53645;DHT22;39547;45.554;12.068;2023-12-07T20:34:47;4.70;93.30
53645;DHT22;39547;45.554;12.068;2023-12-07T20:40:50;4.60;93.40
53645;DHT22;39547;45.554;12.068;2023-12-07T20:46:52;4.60;93.30
53645;DHT22;39547;45.554;12.068;2023-12-07T20:52:53;4.50;93.20
53645;DHT22;39547;45.554;12.068;2023-12-07T20:58:55;4.50;93.20
53645;DHT22;39547;45.554;12.068;2023-12-07T21:04:57;4.40;93.10
53645;DHT22;39547;45.554;12.068;2023-12-07T21:10:58;4.30;93.10
53645;DHT22;39547;45.554;12.068;2023-12-07T21:17:00;4.30;93.20
53645;DHT22;39547;45.554;12.068;2023-12-07T21:23:01;4.20;93.00
53645;DHT22;39547;45.554;12.068;2023-12-07T21:29:03;4.20;93.00
53645;DHT22;39547;45.554;12.068;2023-12-07T21:35:07;4.20;93.10
53645;DHT22;39547;45.554;12.068;2023-12-07T21:41:10;4.20;93.20
53645;DHT22;39547;45.554;12.068;2023-12-07T21:47:11;4.20;93.10
53645;DHT22;39547;45.554;12.068;2023-12-07T21:53:13;4.20;93.00
53645;DHT22;39547;45.554;12.068;2023-12-07T21:59:14;4.10;92.90
53645;DHT22;39547;45.554;12.068;2023-12-07T22:05:16;4.10;92.80
53645;DHT22;39547;45.554;12.068;2023-12-07T22:11:18;4.00;92.80
53645;DHT22;39547;45.554;12.068;2023-12-07T22:17:19;4.00;92.70
53645;DHT22;39547;45.554;12.068;2023-12-07T22:23:21;3.90;92.50
53645;DHT22;39547;45.554;12.068;2023-12-07T22:29:22;3.80;92.50
53645;DHT22;39547;45.554;12.068;2023-12-07T22:35:24;3.70;92.50
53645;DHT22;39547;45.554;12.068;2023-12-07T22:41:26;3.70;92.50
53645;DHT22;39547;45.554;12.068;2023-12-07T22:47:28;3.70;92.60
53645;DHT22;39547;45.554;12.068;2023-12-07T22:53:29;3.70;92.40
53645;DHT22;39547;45.554;12.068;2023-12-07T22:59:31;3.70;92.50
53645;DHT22;39547;45.554;12.068;2023-12-07T23:05:32;3.70;92.50
53645;DHT22;39547;45.554;12.068;2023-12-07T23:11:34;3.70;92.70
53645;DHT22;39547;45.554;12.068;2023-12-07T23:17:36;3.60;92.50
53645;DHT22;39547;45.554;12.068;2023-12-07T23:23:37;3.60;92.50
53645;DHT22;39547;45.554;12.068;2023-12-07T23:29:39;3.60;92.40
53645;DHT22;39547;45.554;12.068;2023-12-07T23:35:41;3.50;92.50
53645;DHT22;39547;45.554;12.068;2023-12-07T23:41:43;3.50;92.40
53645;DHT22;39547;45.554;12.068;2023-12-07T23:47:44;3.50;92.50
53645;DHT22;39547;45.554;12.068;2023-12-07T23:53:46;3.50;92.40
53645;DHT22;39547;45.554;12.068;2023-12-07T23:59:47;3.40;92.20
